Healy, Alaska
Current Conditions -  °F | °C
As of 8:36 PM on Wednesday 26 Nov 2014 (Local Time) from PAIN Reporting Station
Clear Clear  
Wind Chill: -6°   Ceiling: Unl
Heat Index: -6°   Visibility: 10mi
Dew Point: -8°   Wind: 0mph
Humidity: 92%   Direction: NA
Pressure: 30.32"   Gusts: NA
Location:  63.85°N, 148.98°W
Report Text: PAIN 270536Z AUTO 00000KT 10SM CLR M21/M22 A3032 RMK AO1
Loading
Personal Weather Stations






























Interactive Weather Map New forecast layout! Learn more

10-Day Weather Forecast

Advertisements
Track Severe Weather on mobile